createdAt,value
2022-08-15T00:02:34.613Z,6.6
2022-08-15T00:06:41.942Z,6.2
2022-08-15T00:08:49.878Z,5.4
2022-08-15T00:11:00.989Z,6.4
2022-08-15T00:12:44.265Z,6.2
2022-08-15T00:14:45.967Z,6.1
2022-08-15T00:18:53.094Z,7.1
2022-08-15T00:20:54.781Z,6.2
2022-08-15T00:22:56.546Z,7.2
2022-08-15T00:23:59.179Z,6.4
2022-08-15T00:26:23.742Z,5.5
2022-08-15T00:28:02.716Z,6.2
2022-08-15T00:30:05.832Z,6.4
2022-08-15T00:33:01.596Z,7.9
2022-08-15T00:38:21.472Z,6.9
2022-08-15T00:42:18.589Z,6.1
2022-08-15T00:44:20.348Z,7.2
2022-08-15T00:46:25.750Z,7
2022-08-15T00:50:33.812Z,8.1
2022-08-15T00:52:31.678Z,7
2022-08-15T00:56:34.457Z,6.5
2022-08-15T00:58:38.177Z,8.1
2022-08-15T01:02:43.265Z,7.3
2022-08-15T01:04:45.003Z,7.5
2022-08-15T01:06:46.780Z,6.4
2022-08-15T01:08:48.564Z,6.9
2022-08-15T01:10:59.799Z,6.5
2022-08-15T01:12:53.305Z,7.4
2022-08-15T01:16:59.167Z,7.5
2022-08-15T01:19:04.074Z,7.5
2022-08-15T01:22:05.535Z,7.8
2022-08-15T01:24:15.397Z,8.1
2022-08-15T01:26:41.150Z,7.9
2022-08-15T01:30:39.156Z,8.7
2022-08-15T01:32:17.926Z,7.8
2022-08-15T01:34:19.540Z,7.7
2022-08-15T01:36:31.918Z,8.1
2022-08-15T01:40:54.492Z,7.7
2022-08-15T01:42:30.131Z,7.6
2022-08-15T01:44:33.480Z,7.9
2022-08-15T01:46:33.643Z,7.4
2022-08-15T01:48:38.610Z,7
2022-08-15T01:50:37.217Z,8
2022-08-15T01:55:03.087Z,7.1
2022-08-15T01:56:46.298Z,7.5
2022-08-15T02:08:56.689Z,7.8
2022-08-15T02:13:12.462Z,7.2
2022-08-15T02:16:10.527Z,7.7
2022-08-15T02:18:11.566Z,7.7
2022-08-15T02:24:21.081Z,7.6
2022-08-15T02:28:35.816Z,8.3
2022-08-15T02:30:30.822Z,7.7
2022-08-15T02:34:44.724Z,9
2022-08-15T02:38:47.362Z,8.1
2022-08-15T02:40:45.294Z,7.7
2022-08-15T02:44:41.649Z,8.2
2022-08-15T02:47:03.529Z,7.6
2022-08-15T02:48:57.495Z,7.8
2022-08-15T02:50:46.964Z,7.8
2022-08-15T02:52:53.672Z,8.2
2022-08-15T02:54:59.128Z,7.3
2022-08-15T02:56:55.799Z,8.4
2022-08-15T02:58:57.589Z,9.5
2022-08-15T03:01:08.215Z,8.3
2022-08-15T03:07:08.224Z,9.2
2022-08-15T03:11:11.829Z,9.5
2022-08-15T03:13:39.513Z,8.7
2022-08-15T03:15:34.993Z,10.1
2022-08-15T03:19:45.547Z,9
2022-08-15T03:23:45.436Z,9.4
2022-08-15T03:27:48.995Z,9.2
2022-08-15T03:29:53.768Z,9.3
2022-08-15T03:31:52.546Z,9
2022-08-15T03:33:58.818Z,9.2
2022-08-15T03:35:59.589Z,9.7
2022-08-15T03:40:03.211Z,8.2
2022-08-15T03:42:04.917Z,10
2022-08-15T03:44:06.684Z,9.3
2022-08-15T03:50:28.040Z,9.4
2022-08-15T03:52:33.345Z,9.1
2022-08-15T03:54:25.559Z,9.1
2022-08-15T03:56:20.863Z,8.7
2022-08-15T03:58:35.605Z,8.6
2022-08-15T04:00:24.482Z,10.5
2022-08-15T04:02:31.269Z,9.2
2022-08-15T04:04:31.519Z,9.5
2022-08-15T04:07:41.107Z,9.3
2022-08-15T04:09:43.468Z,9.5
2022-08-15T04:11:39.553Z,9.9
2022-08-15T04:13:42.266Z,8.9
2022-08-15T04:15:46.564Z,10.4
2022-08-15T04:17:56.894Z,9.8
2022-08-15T04:19:50.157Z,9.7
2022-08-15T04:21:51.954Z,8.8
2022-08-15T04:23:53.729Z,8.6
2022-08-15T04:25:55.657Z,10
2022-08-15T04:27:57.342Z,10.6
2022-08-15T04:32:04.348Z,9.2
2022-08-15T04:34:47.855Z,8.8
2022-08-15T04:36:07.906Z,8.8
2022-08-15T04:38:09.679Z,8.6
2022-08-15T04:41:19.293Z,9.2
2022-08-15T04:44:18.843Z,9.6
2022-08-15T04:46:26.048Z,9.7
2022-08-15T04:48:22.162Z,9.3
2022-08-15T04:50:24.040Z,8.1
2022-08-15T04:52:25.630Z,8.7
2022-08-15T04:56:47.314Z,9.2
2022-08-15T05:00:36.348Z,10.9
2022-08-15T05:03:40.855Z,10
2022-08-15T05:12:00.590Z,11.5
2022-08-15T05:15:54.862Z,11.7
2022-08-15T05:19:58.440Z,11.4
2022-08-15T05:22:00.246Z,11.5
2022-08-15T05:26:37.544Z,11.7
2022-08-15T05:28:30.287Z,12.9
2022-08-15T05:30:10.920Z,12.4
2022-08-15T05:32:18.799Z,11.7
2022-08-15T05:34:14.515Z,12.4
2022-08-15T05:38:22.110Z,11.5
2022-08-15T05:40:24.466Z,12.4
2022-08-15T05:42:30.441Z,11.6
2022-08-15T05:44:38.153Z,11.1
2022-08-15T05:48:36.102Z,11.1
2022-08-15T05:52:35.018Z,9.8
2022-08-15T05:54:39.347Z,11.6
2022-08-15T05:56:41.108Z,11.5
2022-08-15T05:58:45.288Z,11.2
2022-08-15T06:03:49.319Z,9.9
2022-08-15T06:05:50.857Z,9.6
2022-08-15T06:12:05.147Z,10.5
2022-08-15T06:16:46.840Z,9.2
2022-08-15T06:18:04.961Z,9
2022-08-15T06:20:29.464Z,9.3
2022-08-15T06:22:11.995Z,9.1
2022-08-15T06:24:26.185Z,7.2
2022-08-15T06:26:18.850Z,7.9
2022-08-15T06:28:51.880Z,7.5
2022-08-15T06:30:18.970Z,7.4
2022-08-15T06:32:23.127Z,8
2022-08-15T06:36:27.671Z,7.9
2022-08-15T06:38:36.727Z,7.3
2022-08-15T06:40:31.222Z,8.8
2022-08-15T06:42:32.830Z,8.4
2022-08-15T06:44:34.550Z,7.9
2022-08-15T06:46:46.953Z,7.9
2022-08-15T06:48:58.533Z,7.7
2022-08-15T06:50:43.175Z,7.7
2022-08-15T06:52:44.887Z,7.6
2022-08-15T06:57:03.887Z,7.6
2022-08-15T07:09:17.392Z,9.3
2022-08-15T07:11:19.055Z,9.8
2022-08-15T07:13:20.704Z,9.2
2022-08-15T07:15:22.355Z,13.5
2022-08-15T07:17:33.018Z,8.7
2022-08-15T07:19:34.746Z,9.3
2022-08-15T07:21:53.661Z,8.9
2022-08-15T07:23:32.470Z,9.7
2022-08-15T07:25:34.182Z,8.1
2022-08-15T07:27:35.755Z,7.8
2022-08-15T07:29:40.297Z,9.9
2022-08-15T07:32:10.784Z,6.9
2022-08-15T07:33:44.748Z,6.6
2022-08-15T07:35:45.897Z,6.8
2022-08-15T07:37:47.560Z,6.6
2022-08-15T07:39:49.601Z,6.6
2022-08-15T07:41:54.444Z,5.9
2022-08-15T07:43:52.533Z,5.7
2022-08-15T07:50:01.060Z,7.5
2022-08-15T07:57:09.950Z,4.3
2022-08-15T08:01:34.611Z,3.8
2022-08-15T08:03:19.543Z,3.5
2022-08-15T08:07:33.032Z,3.5
2022-08-15T08:09:24.035Z,3.1
2022-08-15T08:11:25.663Z,3.2
2022-08-15T08:13:36.232Z,3
2022-08-15T08:18:38.351Z,2.1
2022-08-15T08:19:35.986Z,1.7
2022-08-15T08:23:39.689Z,1.5
2022-08-15T08:26:03.830Z,2
2022-08-15T08:27:47.474Z,1.1
2022-08-15T08:29:50.693Z,1.4
2022-08-15T08:31:57.462Z,1.4
2022-08-15T08:33:55.642Z,1.5
2022-08-15T08:35:53.126Z,1.5
2022-08-15T08:37:54.860Z,1.3
2022-08-15T08:39:59.515Z,1.5
2022-08-15T08:42:01.722Z,1.7
2022-08-15T08:44:18.108Z,1.6
2022-08-15T08:46:05.117Z,1.5
2022-08-15T08:47:07.878Z,1.5
2022-08-15T08:49:09.409Z,2.4
2022-08-15T08:51:11.161Z,1.2
2022-08-15T08:53:12.765Z,1.5
2022-08-15T08:55:17.951Z,1.6
2022-08-15T08:57:19.603Z,1.6
2022-08-15T08:59:21.269Z,1.3
2022-08-15T09:01:24.639Z,1.4
2022-08-15T09:03:24.590Z,2.2
2022-08-15T09:05:26.303Z,1.8
2022-08-15T09:07:27.921Z,3
2022-08-15T09:09:34.193Z,1.4
2022-08-15T09:11:34.743Z,1.8
2022-08-15T09:13:37.725Z,1.7
2022-08-15T09:19:41.367Z,1.3
2022-08-15T09:21:43.130Z,1.4
2022-08-15T09:23:48.181Z,1.5
2022-08-15T09:25:50.723Z,1.4
2022-08-15T09:27:56.694Z,1.5
2022-08-15T09:29:56.917Z,1.8
2022-08-15T09:32:00.079Z,2.2
2022-08-15T09:33:57.333Z,1.7
2022-08-15T09:35:58.143Z,1.6
2022-08-15T09:38:03.188Z,1.6
2022-08-15T09:40:04.911Z,1.7
2022-08-15T09:42:33.753Z,1.6
2022-08-15T09:49:13.954Z,1.5
2022-08-15T09:51:19.128Z,1.6
2022-08-15T09:59:25.693Z,1.2
2022-08-15T10:01:27.401Z,1.8
2022-08-15T10:03:30.100Z,1.3
2022-08-15T10:05:38.039Z,1.2
2022-08-15T10:07:35.778Z,1.8
2022-08-15T10:09:37.440Z,1.5
2022-08-15T10:11:39.074Z,1.8
2022-08-15T10:13:40.967Z,1.2
2022-08-15T10:15:42.383Z,1.4
2022-08-15T10:17:57.619Z,1.7
2022-08-15T10:20:01.419Z,1.4
2022-08-15T10:21:51.961Z,2
2022-08-15T10:23:59.523Z,1.4
2022-08-15T10:25:54.093Z,1.5
2022-08-15T10:27:55.739Z,1
2022-08-15T10:29:57.369Z,1.4
2022-08-15T10:32:38.777Z,1.6
2022-08-15T10:34:04.178Z,1.3
2022-08-15T10:36:05.820Z,1.3
2022-08-15T10:40:30.378Z,1.7
2022-08-15T10:42:31.995Z,1.3
2022-08-15T10:44:35.305Z,2.1
2022-08-15T10:46:44.796Z,1.4
2022-08-15T10:48:45.140Z,1.5
2022-08-15T10:50:42.283Z,1.8
2022-08-15T10:54:45.488Z,1.6
2022-08-15T10:57:05.584Z,1.4
2022-08-15T10:58:48.781Z,1.7
2022-08-15T11:03:11.209Z,2.3
2022-08-15T11:04:59.398Z,2.1
2022-08-15T11:06:58.974Z,1.8
2022-08-15T11:09:00.639Z,1.9
2022-08-15T11:11:02.316Z,2.1
2022-08-15T11:15:22.171Z,2.1
2022-08-15T11:17:10.884Z,2
2022-08-15T11:21:14.259Z,1.8
2022-08-15T11:27:23.895Z,1.5
2022-08-15T11:29:24.454Z,1.4
2022-08-15T11:31:37.102Z,2
2022-08-15T11:34:42.268Z,2
2022-08-15T11:36:32.097Z,2.6
2022-08-15T11:40:35.478Z,2.6
2022-08-15T11:42:58.191Z,1.7
2022-08-15T11:44:42.359Z,1.8
2022-08-15T11:46:44.238Z,2
2022-08-15T11:50:47.364Z,2.4
2022-08-15T11:52:50.773Z,2
2022-08-15T11:54:50.630Z,2.6
2022-08-15T12:00:59.731Z,1.9
2022-08-15T12:05:42.593Z,2.2
2022-08-15T12:07:04.012Z,2.3
2022-08-15T12:09:05.637Z,2.3
2022-08-15T12:11:10.815Z,1.3
2022-08-15T12:13:23.817Z,1.8
2022-08-15T12:15:17.730Z,1.5
2022-08-15T12:17:15.658Z,1.8
2022-08-15T12:19:17.300Z,1.6
2022-08-15T12:21:19.818Z,2
2022-08-15T12:23:20.574Z,2.5
2022-08-15T12:25:44.502Z,2
2022-08-15T12:27:34.088Z,1.4
2022-08-15T12:29:28.966Z,2.6
2022-08-15T12:30:31.568Z,1.5
2022-08-15T12:32:36.943Z,1.4
2022-08-15T12:34:38.304Z,2.1
2022-08-15T12:37:03.197Z,2
2022-08-15T12:38:41.642Z,2.8
2022-08-15T12:41:00.903Z,2.7
2022-08-15T12:44:48.413Z,2
2022-08-15T12:46:48.162Z,2.1
2022-08-15T12:48:57.895Z,2.5
2022-08-15T12:50:51.456Z,3.5
2022-08-15T12:54:58.287Z,2.6
2022-08-15T12:57:09.931Z,2.3
2022-08-15T12:59:02.543Z,2.6
2022-08-15T13:01:13.812Z,3.4
2022-08-15T13:03:04.663Z,2.7
2022-08-15T13:05:06.260Z,2.2
2022-08-15T13:07:14.253Z,2.6
2022-08-15T13:09:13.020Z,2.8
2022-08-15T13:11:17.065Z,1.9
2022-08-15T13:17:42.834Z,1.9
2022-08-15T13:19:23.328Z,2.5
2022-08-15T13:21:26.185Z,1.8
2022-08-15T13:25:29.419Z,3
2022-08-15T13:26:34.170Z,1.9
2022-08-15T13:28:34.734Z,1.9
2022-08-15T13:34:46.110Z,2.3
2022-08-15T13:36:54.852Z,3.5
2022-08-15T13:38:45.127Z,2.8
2022-08-15T13:40:46.779Z,2.3
2022-08-15T13:42:48.745Z,3.3
2022-08-15T13:44:49.887Z,2.6
2022-08-15T13:46:51.497Z,2.5
2022-08-15T13:48:56.474Z,2.8
2022-08-15T13:53:00.146Z,3.5
2022-08-15T13:55:14.224Z,2.8
2022-08-15T13:59:11.940Z,3.6
2022-08-15T14:01:07.782Z,3
2022-08-15T14:03:13.022Z,3.7
2022-08-15T14:07:16.233Z,3.4
2022-08-15T14:09:20.845Z,3.6
2022-08-15T14:11:32.218Z,5.5
2022-08-15T14:13:22.757Z,4.5
2022-08-15T14:15:25.714Z,4.1
2022-08-15T14:17:29.073Z,4.7
2022-08-15T14:20:00.260Z,5.4
2022-08-15T14:21:31.205Z,3.5
2022-08-15T14:27:09.255Z,4.1
2022-08-15T14:27:57.817Z,4.7
2022-08-15T14:46:33.424Z,5
2022-08-15T14:54:43.692Z,4.4
2022-08-15T14:56:32.530Z,4.4
2022-08-15T14:58:36.700Z,5.4
2022-08-15T15:02:36.587Z,4.8
2022-08-15T15:04:38.002Z,4.5
2022-08-15T15:06:39.997Z,3.8
2022-08-15T15:08:41.266Z,3
2022-08-15T15:10:42.944Z,5.4
2022-08-15T15:14:49.771Z,5.3
2022-08-15T15:16:52.382Z,6.6
2022-08-15T15:17:54.043Z,5.5
2022-08-15T15:21:57.350Z,5.5
2022-08-15T15:23:58.990Z,4.2
2022-08-15T15:26:04.319Z,4.6
2022-08-15T15:30:07.479Z,5
2022-08-15T15:34:14.700Z,3.7
2022-08-15T15:36:27.053Z,4.5
2022-08-15T15:40:22.530Z,3.9
2022-08-15T15:42:31.573Z,3.8
2022-08-15T15:44:22.622Z,4
2022-08-15T15:46:27.853Z,3.3
2022-08-15T15:50:30.534Z,3.6
2022-08-15T15:52:32.172Z,3.6
2022-08-15T15:54:35.491Z,4.3
2022-08-15T15:59:01.746Z,3.1
2022-08-15T16:00:39.598Z,3.3
2022-08-15T16:02:47.677Z,3.5
2022-08-15T16:04:42.879Z,3.4
2022-08-15T16:07:02.877Z,2.8
2022-08-15T16:10:51.453Z,3.6
2022-08-15T16:12:58.608Z,2.4
2022-08-15T16:13:55.738Z,3.1
2022-08-15T16:17:59.104Z,3
2022-08-15T16:20:00.834Z,3
2022-08-15T16:22:06.017Z,3.3
2022-08-15T16:24:07.709Z,2.9
2022-08-15T16:28:12.382Z,3.3
2022-08-15T16:30:30.435Z,3.3
2022-08-15T16:32:20.242Z,3.2
2022-08-15T16:34:16.150Z,3
2022-08-15T16:36:24.144Z,3.3
2022-08-15T16:39:06.462Z,3.4
2022-08-15T16:40:28.287Z,3.1
2022-08-15T16:42:40.872Z,2.8
2022-08-15T16:44:28.171Z,2.8
2022-08-15T16:46:29.837Z,3.3
2022-08-15T16:48:31.520Z,3
2022-08-15T16:50:36.768Z,3.2
2022-08-15T16:52:38.433Z,3
2022-08-15T16:54:40.173Z,3.2
2022-08-15T16:56:41.859Z,2.8
2022-08-15T16:58:43.611Z,3.1
2022-08-15T17:03:04.546Z,2.9
2022-08-15T17:04:52.159Z,3.2
2022-08-15T17:06:53.888Z,3.2
2022-08-15T17:08:55.555Z,3.1
2022-08-15T17:09:58.218Z,2.6
2022-08-15T17:14:02.563Z,4
2022-08-15T17:22:17.274Z,3.5
2022-08-15T17:26:58.026Z,3.1
2022-08-15T17:28:34.766Z,3.3
2022-08-15T17:34:41.318Z,3.5
2022-08-15T17:36:27.377Z,3.5
2022-08-15T17:44:51.146Z,3.3
2022-08-15T17:46:39.452Z,2.9
2022-08-15T17:48:51.106Z,3.9
2022-08-15T17:52:44.578Z,3.4
2022-08-15T17:54:52.413Z,3.1
2022-08-15T17:56:48.008Z,2.5
2022-08-15T17:58:49.724Z,3.2
2022-08-15T18:00:55.018Z,2.6
2022-08-15T18:05:01.773Z,4.3
2022-08-15T18:10:05.907Z,3.2
2022-08-15T18:11:34.479Z,3.5
2022-08-15T18:17:34.336Z,3
2022-08-15T18:19:37.116Z,3.5
2022-08-15T18:21:41.291Z,2.6
2022-08-15T18:23:53.594Z,3.7
2022-08-15T18:25:47.553Z,2.8
2022-08-15T18:29:48.214Z,3.5
2022-08-15T18:31:49.943Z,3.6
2022-08-15T18:35:53.417Z,2.7
2022-08-15T18:37:55.141Z,3
2022-08-15T18:44:08.533Z,3.9
2022-08-15T18:50:09.041Z,2.9
2022-08-15T18:56:25.800Z,2.9
2022-08-15T19:03:26.609Z,3.1
2022-08-15T19:05:28.267Z,3.3
2022-08-15T19:09:37.778Z,2.7
2022-08-15T19:11:41.746Z,3.2
2022-08-15T19:13:43.338Z,3
2022-08-15T19:15:39.519Z,2.5
2022-08-15T19:17:41.281Z,3.4
2022-08-15T19:19:43.061Z,3.3
2022-08-15T19:21:44.764Z,2.8
2022-08-15T19:23:50.006Z,3.4
2022-08-15T19:25:51.749Z,3.2
2022-08-15T19:27:55.838Z,2.8
2022-08-15T19:29:55.734Z,2.7
2022-08-15T19:33:58.692Z,2.5
2022-08-15T19:36:00.408Z,3.2
2022-08-15T19:40:18.235Z,2.9
2022-08-15T19:42:09.145Z,2.8
2022-08-15T19:46:14.254Z,2.9
2022-08-15T19:48:16.125Z,2.8
2022-08-15T19:50:20.461Z,3.1
2022-08-15T19:52:44.488Z,2.7
2022-08-15T19:55:22.802Z,3.1
2022-08-15T19:56:29.461Z,3.1
2022-08-15T19:57:53.174Z,3
2022-08-15T19:59:31.757Z,2.7
2022-08-15T20:01:37.127Z,5.2
2022-08-15T20:03:34.157Z,3.3
2022-08-15T20:06:05.449Z,3.7
2022-08-15T20:07:41.121Z,3.5
2022-08-15T20:09:42.861Z,3.4
2022-08-15T20:14:01.831Z,3.2
2022-08-15T20:15:48.027Z,3.6
2022-08-15T20:22:01.873Z,3.2
2022-08-15T20:23:58.467Z,3.8
2022-08-15T20:26:06.849Z,3.2
2022-08-15T20:30:05.222Z,3.6
2022-08-15T20:34:10.642Z,4.3
2022-08-15T20:36:12.371Z,5.2
2022-08-15T20:38:14.119Z,4.1
2022-08-15T20:40:21.393Z,3.8
2022-08-15T20:42:19.949Z,3.6
2022-08-15T20:44:31.400Z,4.1
2022-08-15T20:46:21.065Z,3.7
2022-08-15T20:48:41.369Z,3.5
2022-08-15T20:50:28.071Z,3.6
2022-08-15T20:52:39.406Z,4.5
2022-08-15T20:53:34.872Z,3.5
2022-08-15T20:55:34.164Z,3.5
2022-08-15T21:01:43.247Z,3.7
2022-08-15T21:04:01.277Z,3.3
2022-08-15T21:09:49.885Z,4
2022-08-15T21:11:51.777Z,4.2
2022-08-15T21:13:53.413Z,2.9
2022-08-15T21:16:05.264Z,3.7
2022-08-15T21:18:03.780Z,3.7
2022-08-15T21:20:02.293Z,4.1
2022-08-15T21:22:03.910Z,4.1
2022-08-15T21:24:05.661Z,4
2022-08-15T21:26:07.600Z,3.5
2022-08-15T21:28:10.099Z,3.5
2022-08-15T21:30:43.729Z,4.4
2022-08-15T21:32:31.597Z,4
2022-08-15T21:38:21.465Z,4
2022-08-15T21:42:24.972Z,3.9
2022-08-15T21:44:30.907Z,3.6
2022-08-15T21:46:32.497Z,3.8
2022-08-15T21:48:48.179Z,4.1
2022-08-15T21:53:00.983Z,4.1
2022-08-15T21:55:01.890Z,4.2
2022-08-15T21:57:07.043Z,3.7
2022-08-15T21:59:15.672Z,3.5
2022-08-15T22:03:11.601Z,3.8
2022-08-15T22:05:13.358Z,4.3
2022-08-15T22:07:15.125Z,3.7
2022-08-15T22:11:22.160Z,3.5
2022-08-15T22:19:29.183Z,3.8
2022-08-15T22:21:33.704Z,3.7
2022-08-15T22:27:39.727Z,3.6
2022-08-15T22:29:48.476Z,3.5
2022-08-15T22:31:44.820Z,3.6
2022-08-15T22:33:44.984Z,3
2022-08-15T22:35:46.795Z,3.7
2022-08-15T22:41:55.541Z,3.4
2022-08-15T22:43:57.300Z,4
2022-08-15T22:47:01.667Z,3.5
2022-08-15T22:49:03.523Z,3.9
2022-08-15T22:53:10.462Z,3.8
2022-08-15T22:59:15.742Z,3.3
2022-08-15T23:01:17.571Z,3.2
2022-08-15T23:03:22.690Z,3.3
2022-08-15T23:05:21.037Z,2.9
2022-08-15T23:07:26.310Z,3.9
2022-08-15T23:09:35.623Z,3.2
2022-08-15T23:11:29.854Z,3.1
2022-08-15T23:13:31.605Z,3.5
2022-08-15T23:15:33.386Z,2.6
2022-08-15T23:21:42.180Z,3.4
2022-08-15T23:23:43.943Z,2.7
2022-08-15T23:29:49.247Z,2.5
2022-08-15T23:37:59.820Z,3.6
2022-08-15T23:40:01.640Z,3.5
2022-08-15T23:43:05.969Z,3
2022-08-15T23:45:13.544Z,3.4
2022-08-15T23:47:13.342Z,2.8
2022-08-15T23:49:14.780Z,3.1
2022-08-15T23:51:16.546Z,3.1
2022-08-15T23:55:28.534Z,2.9
2022-08-15T23:57:21.885Z,3.2
2022-08-15T23:59:28.065Z,3
